createdAt,value
2023-01-19T00:00:16.999Z,1.50
2023-01-19T00:02:48.500Z,1.60
2023-01-19T00:05:20.416Z,1.60
2023-01-19T00:07:51.874Z,2.45
2023-01-19T00:10:23.275Z,1.45
2023-01-19T00:12:54.719Z,1.55
2023-01-19T00:15:26.217Z,1.35
2023-01-19T00:17:57.703Z,1.40
2023-01-19T00:20:29.203Z,1.50
2023-01-19T00:23:01.135Z,1.47
2023-01-19T00:25:32.874Z,1.25
2023-01-19T00:28:04.418Z,1.13
2023-01-19T00:30:35.880Z,1.38
2023-01-19T00:33:07.765Z,1.43
2023-01-19T00:35:39.359Z,1.50
2023-01-19T00:38:11.947Z,2.00
2023-01-19T00:40:43.414Z,1.40
2023-01-19T00:43:14.844Z,1.70
2023-01-19T00:45:46.377Z,1.60
2023-01-19T00:48:17.808Z,1.77
2023-01-19T00:50:49.242Z,2.05
2023-01-19T00:53:20.723Z,2.17
2023-01-19T00:55:52.194Z,1.98
2023-01-19T00:58:23.664Z,1.97
2023-01-19T01:00:55.312Z,1.40
2023-01-19T01:03:26.928Z,1.70
2023-01-19T01:05:59.076Z,1.70
2023-01-19T01:08:30.842Z,1.33
2023-01-19T01:11:02.292Z,1.50
2023-01-19T01:13:34.016Z,1.40
2023-01-19T01:16:06.270Z,1.25
2023-01-19T01:18:37.724Z,1.15
2023-01-19T01:21:09.707Z,0.93
2023-01-19T01:23:41.162Z,1.40
2023-01-19T01:26:12.584Z,1.37
2023-01-19T01:28:43.990Z,1.40
2023-01-19T01:31:15.473Z,1.67
2023-01-19T01:33:47.016Z,1.30
2023-01-19T01:36:18.516Z,1.30
2023-01-19T01:38:49.954Z,1.23
2023-01-19T01:41:22.015Z,1.55
2023-01-19T01:43:57.872Z,1.60
2023-01-19T01:46:31.492Z,1.38
2023-01-19T01:49:13.489Z,1.63
2023-01-19T01:51:54.311Z,1.45
2023-01-19T01:54:33.454Z,1.77
2023-01-19T01:57:08.426Z,1.95
2023-01-19T01:59:48.376Z,2.10
2023-01-19T02:02:23.205Z,2.40
2023-01-19T02:05:02.563Z,2.47
2023-01-19T02:07:43.494Z,1.67
2023-01-19T02:10:15.226Z,1.50
2023-01-19T02:12:47.213Z,1.50
2023-01-19T02:15:19.762Z,1.25
2023-01-19T02:17:51.292Z,1.42
2023-01-19T02:20:27.591Z,1.20
2023-01-19T02:23:05.618Z,1.20
2023-01-19T02:25:37.088Z,1.20
2023-01-19T02:28:09.130Z,1.10
2023-01-19T02:30:41.459Z,1.30
2023-01-19T02:33:12.995Z,1.45
2023-01-19T02:35:45.439Z,1.15
2023-01-19T02:38:19.327Z,1.60
2023-01-19T02:40:51.966Z,1.40
2023-01-19T02:43:24.927Z,1.75
2023-01-19T02:45:56.595Z,1.50
2023-01-19T02:48:28.031Z,1.48
2023-01-19T02:51:10.043Z,1.65
2023-01-19T02:54:06.215Z,1.50
2023-01-19T02:56:59.753Z,1.50
2023-01-19T02:59:53.610Z,1.83
2023-01-19T03:02:35.958Z,1.83
2023-01-19T03:05:27.232Z,1.90
2023-01-19T03:08:18.663Z,1.95
2023-01-19T03:11:09.041Z,1.88
2023-01-19T03:13:44.491Z,1.95
2023-01-19T03:16:15.881Z,1.50
2023-01-19T03:18:52.516Z,2.40
2023-01-19T03:21:27.588Z,2.05
2023-01-19T03:24:04.538Z,2.00
2023-01-19T03:26:43.373Z,2.20
2023-01-19T03:29:17.169Z,2.30
2023-01-19T03:31:51.401Z,4.05
2023-01-19T03:34:23.935Z,3.72
2023-01-19T03:37:02.678Z,3.08
2023-01-19T03:39:34.599Z,3.10
2023-01-19T03:42:08.159Z,3.17
2023-01-19T03:44:42.301Z,2.77
2023-01-19T03:47:14.752Z,3.40
2023-01-19T03:49:47.865Z,2.92
2023-01-19T03:52:28.207Z,3.45
2023-01-19T03:55:01.362Z,3.00
2023-01-19T03:57:32.806Z,3.65
2023-01-19T04:00:05.005Z,4.00
2023-01-19T04:02:36.500Z,3.33
2023-01-19T04:05:08.359Z,3.95
2023-01-19T04:07:39.800Z,3.65
2023-01-19T04:10:11.396Z,3.83
2023-01-19T04:12:42.865Z,4.22
2023-01-19T04:15:15.325Z,3.47
2023-01-19T04:17:46.804Z,4.28
2023-01-19T04:20:18.430Z,4.28
2023-01-19T04:22:49.921Z,4.20
2023-01-19T04:25:21.397Z,3.97
2023-01-19T04:27:53.431Z,3.63
2023-01-19T04:30:25.010Z,3.50
2023-01-19T04:32:59.509Z,3.17
2023-01-19T04:35:31.258Z,4.22
2023-01-19T04:38:02.728Z,4.10
2023-01-19T04:40:34.153Z,3.55
2023-01-19T04:43:05.584Z,4.63
2023-01-19T04:45:37.170Z,4.00
2023-01-19T04:48:08.563Z,4.97
2023-01-19T04:50:40.696Z,4.50
2023-01-19T04:53:12.406Z,4.83
2023-01-19T04:55:44.317Z,4.20
2023-01-19T04:58:15.727Z,4.07
2023-01-19T05:00:47.632Z,4.13
2023-01-19T05:03:20.160Z,4.40
2023-01-19T05:05:51.636Z,3.65
2023-01-19T05:08:23.140Z,3.45
2023-01-19T05:10:58.079Z,3.60
2023-01-19T05:13:29.543Z,3.83
2023-01-19T05:16:01.739Z,3.53
2023-01-19T05:18:33.276Z,3.53
2023-01-19T05:21:05.013Z,3.45
2023-01-19T05:23:36.444Z,4.27
2023-01-19T05:26:10.347Z,4.20
2023-01-19T05:28:41.823Z,4.22
2023-01-19T05:31:13.365Z,4.05
2023-01-19T05:33:44.871Z,3.97
2023-01-19T05:36:16.345Z,3.93
2023-01-19T05:38:47.828Z,4.28
2023-01-19T05:41:19.284Z,4.53
2023-01-19T05:43:50.675Z,3.20
2023-01-19T05:46:22.123Z,4.32
2023-01-19T05:48:53.769Z,3.95
2023-01-19T05:51:25.199Z,4.15
2023-01-19T05:53:56.620Z,4.15
2023-01-19T05:56:28.067Z,3.97
2023-01-19T05:59:00.628Z,4.40
2023-01-19T06:01:32.283Z,4.53
2023-01-19T06:04:04.918Z,3.85
2023-01-19T06:06:36.378Z,4.07
2023-01-19T06:09:07.928Z,3.63
2023-01-19T06:11:39.399Z,3.33
2023-01-19T06:14:11.731Z,2.90
2023-01-19T06:16:43.244Z,3.13
2023-01-19T06:19:14.699Z,2.97
2023-01-19T06:21:48.759Z,3.23
2023-01-19T06:24:20.192Z,3.20
2023-01-19T06:26:52.261Z,3.08
2023-01-19T06:29:23.789Z,3.33
2023-01-19T06:31:55.570Z,3.83
2023-01-19T06:34:27.023Z,3.92
2023-01-19T06:36:58.932Z,3.03
2023-01-19T06:39:30.401Z,4.38
2023-01-19T06:42:01.878Z,3.22
2023-01-19T06:44:33.501Z,3.28
2023-01-19T06:47:15.152Z,3.65
2023-01-19T06:49:47.498Z,3.67
2023-01-19T06:52:18.977Z,3.28
2023-01-19T06:54:50.520Z,3.33
2023-01-19T06:57:21.961Z,2.67
2023-01-19T06:59:53.386Z,2.97
2023-01-19T07:02:26.325Z,3.00
2023-01-19T07:04:59.502Z,2.50
2023-01-19T07:07:30.966Z,3.13
2023-01-19T07:10:02.440Z,2.95
2023-01-19T07:12:34.520Z,3.05
2023-01-19T07:15:07.130Z,3.15
2023-01-19T07:17:38.526Z,3.17
2023-01-19T07:20:11.303Z,2.80
2023-01-19T07:22:43.086Z,2.57
2023-01-19T07:25:14.599Z,2.75
2023-01-19T07:27:46.063Z,3.13
2023-01-19T07:30:17.666Z,2.90
2023-01-19T07:32:49.105Z,2.58
2023-01-19T07:35:20.591Z,2.60
2023-01-19T07:37:52.085Z,2.60
2023-01-19T07:40:24.114Z,2.40
2023-01-19T07:42:55.587Z,2.25
2023-01-19T07:45:27.958Z,2.67
2023-01-19T07:47:59.560Z,2.90
2023-01-19T07:50:31.395Z,2.92
2023-01-19T07:53:07.511Z,2.90
2023-01-19T07:55:38.921Z,2.85
2023-01-19T07:58:10.651Z,3.00
2023-01-19T08:00:42.128Z,2.70
2023-01-19T08:03:13.593Z,3.20
2023-01-19T08:05:49.600Z,2.60
2023-01-19T08:08:21.041Z,3.20
2023-01-19T08:10:52.579Z,2.73
2023-01-19T08:13:24.466Z,2.70
2023-01-19T08:15:55.896Z,2.60
2023-01-19T08:18:27.364Z,2.33
2023-01-19T08:20:59.659Z,2.65
2023-01-19T08:23:31.469Z,2.37
2023-01-19T08:26:18.115Z,2.10
2023-01-19T08:28:49.859Z,2.22
2023-01-19T08:31:24.530Z,2.28
2023-01-19T08:33:56.607Z,2.30
2023-01-19T08:36:28.058Z,2.47
2023-01-19T08:38:59.687Z,2.22
2023-01-19T08:41:31.161Z,2.13
2023-01-19T08:44:02.585Z,2.08
2023-01-19T08:46:34.070Z,2.00
2023-01-19T08:49:05.536Z,2.10
2023-01-19T08:51:37.181Z,2.03
2023-01-19T08:54:08.654Z,2.30
2023-01-19T08:56:40.118Z,2.27
2023-01-19T08:59:13.112Z,2.40
2023-01-19T09:01:45.714Z,2.10
2023-01-19T09:04:17.239Z,1.65
2023-01-19T09:06:48.756Z,2.37
2023-01-19T09:09:20.224Z,2.50
2023-01-19T09:11:54.213Z,2.03
2023-01-19T09:14:25.776Z,2.30
2023-01-19T09:16:57.286Z,2.17
2023-01-19T09:19:28.756Z,2.53
2023-01-19T09:22:00.243Z,2.65
2023-01-19T09:24:31.706Z,1.85
2023-01-19T09:27:03.382Z,1.80
2023-01-19T09:29:34.859Z,2.20
2023-01-19T09:32:06.302Z,2.03
2023-01-19T09:34:37.707Z,1.45
2023-01-19T09:37:09.185Z,1.50
2023-01-19T09:39:40.771Z,1.70
2023-01-19T09:42:23.488Z,1.55
2023-01-19T09:44:55.142Z,1.48
2023-01-19T09:47:30.189Z,1.43
2023-01-19T09:50:13.175Z,1.88
2023-01-19T09:52:49.035Z,1.95
2023-01-19T09:55:25.215Z,1.52
2023-01-19T09:57:56.706Z,2.08
2023-01-19T10:00:30.281Z,1.67
2023-01-19T10:03:15.728Z,1.70
2023-01-19T10:05:58.630Z,1.40
2023-01-19T10:08:41.005Z,1.40
2023-01-19T10:11:51.281Z,1.67
2023-01-19T10:14:36.725Z,1.70
2023-01-19T10:17:36.555Z,1.52
2023-01-19T10:20:16.622Z,1.35
2023-01-19T10:22:50.346Z,1.17
2023-01-19T10:25:22.541Z,1.30
2023-01-19T10:27:54.004Z,1.50
2023-01-19T10:30:29.469Z,1.50
2023-01-19T10:33:01.097Z,1.58
2023-01-19T10:35:32.749Z,1.40
2023-01-19T10:38:05.094Z,1.70
2023-01-19T10:40:52.764Z,1.48
2023-01-19T10:43:39.379Z,1.10
2023-01-19T10:46:27.970Z,1.20
2023-01-19T10:48:59.752Z,1.30
2023-01-19T10:51:31.251Z,1.77
2023-01-19T10:54:04.427Z,1.40
2023-01-19T10:56:38.025Z,1.52
2023-01-19T10:59:31.020Z,1.30
2023-01-19T11:02:16.332Z,1.30
2023-01-19T11:04:50.425Z,1.23
2023-01-19T11:07:26.046Z,1.40
2023-01-19T11:10:26.899Z,1.70
2023-01-19T11:13:12.434Z,1.50
2023-01-19T11:15:53.703Z,1.20
2023-01-19T11:18:34.307Z,1.50
2023-01-19T11:21:17.089Z,1.20
2023-01-19T11:23:58.140Z,1.67
2023-01-19T11:26:34.500Z,1.70
2023-01-19T11:29:06.499Z,1.77
2023-01-19T11:31:38.025Z,1.40
2023-01-19T11:34:36.667Z,1.70
2023-01-19T11:37:20.166Z,1.42
2023-01-19T11:39:54.937Z,1.33
2023-01-19T11:42:30.179Z,1.30
2023-01-19T11:45:13.220Z,1.27
2023-01-19T11:47:47.178Z,1.30
2023-01-19T11:50:41.262Z,1.50
2023-01-19T11:53:25.171Z,1.15
2023-01-19T11:55:56.567Z,1.67
2023-01-19T11:58:28.030Z,1.50
2023-01-19T12:01:02.934Z,1.58
2023-01-19T12:03:42.416Z,1.60
2023-01-19T12:06:22.311Z,1.77
2023-01-19T12:09:06.118Z,1.67
2023-01-19T12:11:43.799Z,1.48
2023-01-19T12:14:24.204Z,1.70
2023-01-19T12:16:59.315Z,1.50
2023-01-19T12:19:50.096Z,1.55
2023-01-19T12:22:22.969Z,1.40
2023-01-19T12:25:26.838Z,1.47
2023-01-19T12:27:59.119Z,1.25
2023-01-19T12:30:30.694Z,1.50
2023-01-19T12:33:28.145Z,1.45
2023-01-19T12:36:10.044Z,1.38
2023-01-19T12:38:53.329Z,2.10
2023-01-19T12:41:30.837Z,1.40
2023-01-19T12:44:11.298Z,1.35
2023-01-19T12:46:43.701Z,1.67
2023-01-19T12:49:24.013Z,1.42
2023-01-19T12:52:26.695Z,1.15
2023-01-19T12:55:13.144Z,1.30
2023-01-19T12:58:03.538Z,1.35
2023-01-19T13:00:40.339Z,1.30
2023-01-19T13:03:17.664Z,1.23
2023-01-19T13:05:53.491Z,1.10
2023-01-19T13:08:27.467Z,1.10
2023-01-19T13:11:01.887Z,1.10
2023-01-19T13:13:45.814Z,1.10
2023-01-19T13:16:20.425Z,1.40
2023-01-19T13:18:58.815Z,1.25
2023-01-19T13:21:42.351Z,1.00
2023-01-19T13:24:16.513Z,1.15
2023-01-19T13:26:51.025Z,1.35
2023-01-19T13:29:37.799Z,1.30
2023-01-19T13:32:17.932Z,1.40
2023-01-19T13:34:54.326Z,1.38
2023-01-19T13:37:44.273Z,1.15
2023-01-19T13:40:24.183Z,1.25
2023-01-19T13:42:56.425Z,1.30
2023-01-19T13:45:32.211Z,1.10
2023-01-19T13:48:12.837Z,1.20
2023-01-19T13:50:57.591Z,1.00
2023-01-19T13:53:29.129Z,1.00
2023-01-19T13:56:07.571Z,1.10
2023-01-19T13:58:39.034Z,1.13
2023-01-19T14:01:21.302Z,1.40
2023-01-19T14:03:53.503Z,1.42
2023-01-19T14:06:35.781Z,1.27
2023-01-19T14:09:18.446Z,1.30
2023-01-19T14:12:12.067Z,1.40
2023-01-19T14:14:45.777Z,1.05
2023-01-19T14:17:29.313Z,1.35
2023-01-19T14:20:00.893Z,1.20
2023-01-19T14:22:42.753Z,1.23
2023-01-19T14:25:29.431Z,1.25
2023-01-19T14:28:28.772Z,1.20
2023-01-19T14:31:17.843Z,1.08
2023-01-19T14:33:55.699Z,1.30
2023-01-19T14:36:33.655Z,1.40
2023-01-19T14:39:14.050Z,2.00
2023-01-19T14:41:48.599Z,1.60
2023-01-19T14:44:36.994Z,1.60
2023-01-19T14:47:25.547Z,2.00
2023-01-19T14:50:02.008Z,1.73
2023-01-19T14:52:48.583Z,1.52
2023-01-19T14:55:25.548Z,1.70
2023-01-19T14:57:57.012Z,1.83
2023-01-19T15:00:28.700Z,2.20
2023-01-19T15:03:00.130Z,1.87
2023-01-19T15:05:32.710Z,1.70
2023-01-19T15:08:04.804Z,1.93
2023-01-19T15:10:36.482Z,2.00
2023-01-19T15:13:15.919Z,1.70
2023-01-19T15:15:47.673Z,2.40
2023-01-19T15:18:28.214Z,1.95
2023-01-19T15:20:59.691Z,1.67
2023-01-19T15:23:31.908Z,1.92
2023-01-19T15:26:05.098Z,1.75
2023-01-19T15:28:36.591Z,1.80
2023-01-19T15:31:14.910Z,1.60
2023-01-19T15:33:47.190Z,1.70
2023-01-19T15:36:21.363Z,1.57
2023-01-19T15:38:52.828Z,1.58
2023-01-19T15:41:28.617Z,1.48
2023-01-19T15:44:00.120Z,3.75
2023-01-19T15:46:32.190Z,2.00
2023-01-19T15:49:03.669Z,1.92
2023-01-19T15:51:35.165Z,1.65
2023-01-19T15:54:12.688Z,1.80
2023-01-19T15:56:44.078Z,1.52
2023-01-19T15:59:15.538Z,1.65
2023-01-19T16:01:47.093Z,2.05
2023-01-19T16:04:18.681Z,2.33
2023-01-19T16:06:50.329Z,2.43
2023-01-19T16:09:21.759Z,2.20
2023-01-19T16:11:55.528Z,2.00
2023-01-19T16:14:26.963Z,2.00
2023-01-19T16:16:58.379Z,2.53
2023-01-19T16:19:29.789Z,2.33
2023-01-19T16:22:01.257Z,2.45
2023-01-19T16:24:32.779Z,2.35
2023-01-19T16:27:04.207Z,2.33
2023-01-19T16:29:35.683Z,2.10
2023-01-19T16:32:07.129Z,1.60
2023-01-19T16:34:38.579Z,1.90
2023-01-19T16:37:10.187Z,1.35
2023-01-19T16:39:41.612Z,1.13
2023-01-19T16:42:13.041Z,1.40
2023-01-19T16:44:44.563Z,1.25
2023-01-19T16:47:16.190Z,1.17
2023-01-19T16:49:47.641Z,1.20
2023-01-19T16:52:19.072Z,1.20
2023-01-19T16:54:50.664Z,0.90
2023-01-19T16:57:22.090Z,0.60
2023-01-19T16:59:53.551Z,0.70
2023-01-19T17:02:25.057Z,1.13
2023-01-19T17:04:56.527Z,1.00
2023-01-19T17:07:28.425Z,0.70
2023-01-19T17:09:59.853Z,1.00
2023-01-19T17:12:32.349Z,0.77
2023-01-19T17:15:04.139Z,1.50
2023-01-19T17:17:35.564Z,1.30
2023-01-19T17:20:07.647Z,1.80
2023-01-19T17:22:39.068Z,1.70
2023-01-19T17:25:10.570Z,1.23
2023-01-19T17:27:42.021Z,1.48
2023-01-19T17:30:14.169Z,1.27
2023-01-19T17:32:45.789Z,1.38
2023-01-19T17:35:17.305Z,1.10
2023-01-19T17:37:52.136Z,0.95
2023-01-19T17:40:23.555Z,1.20
2023-01-19T17:42:55.004Z,1.10
2023-01-19T17:45:26.495Z,1.48
2023-01-19T17:47:57.906Z,1.30
2023-01-19T17:50:30.018Z,1.30
2023-01-19T17:53:01.446Z,1.25
2023-01-19T17:55:33.808Z,1.35
2023-01-19T17:58:05.249Z,1.30
2023-01-19T18:00:36.752Z,1.58
2023-01-19T18:03:08.165Z,1.58
2023-01-19T18:05:39.573Z,1.42
2023-01-19T18:08:10.998Z,1.90
2023-01-19T18:10:42.471Z,1.80
2023-01-19T18:13:13.903Z,1.90
2023-01-19T18:15:45.351Z,1.98
2023-01-19T18:18:17.023Z,2.67
2023-01-19T18:20:48.432Z,2.00
2023-01-19T18:23:19.854Z,2.33
2023-01-19T18:26:00.980Z,2.15
2023-01-19T18:28:33.389Z,3.35
2023-01-19T18:31:10.234Z,2.93
2023-01-19T18:33:42.014Z,3.17
2023-01-19T18:36:13.500Z,2.80
2023-01-19T18:38:45.265Z,2.88
2023-01-19T18:41:18.696Z,2.78
2023-01-19T18:43:50.286Z,4.65
2023-01-19T18:46:21.812Z,3.40
2023-01-19T18:48:53.252Z,2.45
2023-01-19T18:51:24.702Z,1.80
2023-01-19T18:53:57.636Z,1.77
2023-01-19T18:56:29.084Z,1.10
2023-01-19T18:59:02.018Z,0.95
2023-01-19T19:01:33.628Z,0.95
2023-01-19T19:04:05.415Z,1.20
2023-01-19T19:06:36.824Z,1.25
2023-01-19T19:09:09.281Z,1.00
2023-01-19T19:11:40.799Z,0.90
2023-01-19T19:14:12.181Z,1.02
2023-01-19T19:16:43.652Z,0.70
2023-01-19T19:19:15.204Z,0.70
2023-01-19T19:21:46.673Z,0.60
2023-01-19T19:24:18.091Z,0.60
2023-01-19T19:26:49.551Z,1.15
2023-01-19T19:29:20.995Z,0.90
2023-01-19T19:31:52.434Z,1.40
2023-01-19T19:34:23.924Z,1.27
2023-01-19T19:36:55.387Z,1.80
2023-01-19T19:39:26.882Z,1.75
2023-01-19T19:41:58.319Z,1.40
2023-01-19T19:44:29.732Z,1.70
2023-01-19T19:47:01.156Z,1.83
2023-01-19T19:49:32.644Z,1.80
2023-01-19T19:52:04.183Z,1.50
2023-01-19T19:54:35.779Z,1.60
2023-01-19T19:57:07.277Z,1.65
2023-01-19T19:59:39.727Z,1.60
2023-01-19T20:02:12.411Z,1.73
2023-01-19T20:04:43.917Z,2.10
2023-01-19T20:07:17.795Z,2.72
2023-01-19T20:09:49.358Z,2.55
2023-01-19T20:12:20.883Z,2.60
2023-01-19T20:14:52.396Z,2.40
2023-01-19T20:17:23.860Z,3.13
2023-01-19T20:19:55.326Z,2.20
2023-01-19T20:22:26.783Z,2.40
2023-01-19T20:24:58.263Z,2.10
2023-01-19T20:27:29.691Z,2.88
2023-01-19T20:30:01.253Z,4.85
2023-01-19T20:32:33.361Z,4.43
2023-01-19T20:35:05.128Z,2.72
2023-01-19T20:37:36.571Z,2.70
2023-01-19T20:40:08.454Z,2.67
2023-01-19T20:42:39.896Z,3.40
2023-01-19T20:45:11.699Z,3.92
2023-01-19T20:47:43.379Z,3.40
2023-01-19T20:50:14.852Z,3.60
2023-01-19T20:52:46.287Z,3.85
2023-01-19T20:55:17.716Z,4.57
2023-01-19T20:57:49.414Z,4.10
2023-01-19T21:00:21.260Z,4.05
2023-01-19T21:02:52.700Z,3.60
2023-01-19T21:05:24.770Z,4.60
2023-01-19T21:07:56.209Z,3.85
2023-01-19T21:10:29.136Z,3.70
2023-01-19T21:13:00.692Z,4.20
2023-01-19T21:15:32.134Z,4.50
2023-01-19T21:18:03.819Z,3.65
2023-01-19T21:20:35.495Z,3.90
2023-01-19T21:23:07.059Z,4.00
2023-01-19T21:25:38.472Z,4.32
2023-01-19T21:28:09.931Z,4.40
2023-01-19T21:30:41.412Z,4.45
2023-01-19T21:33:12.903Z,3.97
2023-01-19T21:35:55.827Z,4.40
2023-01-19T21:38:29.027Z,3.87
2023-01-19T21:41:05.885Z,4.10
2023-01-19T21:43:38.230Z,3.85
2023-01-19T21:46:24.401Z,3.47
2023-01-19T21:48:57.390Z,4.80
2023-01-19T21:51:30.776Z,3.45
2023-01-19T21:54:04.360Z,3.22
2023-01-19T21:56:36.582Z,3.63
2023-01-19T21:59:07.989Z,3.30
2023-01-19T22:01:39.583Z,3.20
2023-01-19T22:04:11.366Z,3.60
2023-01-19T22:06:42.844Z,3.45
2023-01-19T22:09:14.448Z,3.38
2023-01-19T22:11:45.888Z,3.38
2023-01-19T22:14:17.291Z,3.00
2023-01-19T22:16:48.681Z,3.33
2023-01-19T22:19:20.188Z,3.70
2023-01-19T22:21:51.598Z,3.33
2023-01-19T22:24:23.074Z,3.20
2023-01-19T22:26:54.499Z,3.38
2023-01-19T22:29:25.969Z,3.27
2023-01-19T22:31:57.355Z,3.60
2023-01-19T22:34:28.816Z,3.03
2023-01-19T22:37:00.302Z,3.17
2023-01-19T22:39:31.860Z,3.78
2023-01-19T22:42:03.402Z,3.27
2023-01-19T22:44:34.842Z,3.05
2023-01-19T22:47:06.311Z,3.20
2023-01-19T22:49:37.771Z,2.92
2023-01-19T22:52:09.265Z,3.22
2023-01-19T22:54:40.809Z,2.97
2023-01-19T22:57:12.233Z,2.83
2023-01-19T22:59:43.643Z,3.45
2023-01-19T23:02:15.180Z,3.70
2023-01-19T23:04:46.619Z,3.58
2023-01-19T23:07:18.099Z,4.00
2023-01-19T23:09:49.563Z,4.20
2023-01-19T23:12:21.048Z,4.68
2023-01-19T23:14:52.494Z,6.63
2023-01-19T23:17:23.962Z,8.02
2023-01-19T23:19:55.391Z,8.00
2023-01-19T23:22:26.816Z,8.57
2023-01-19T23:24:58.231Z,9.80
2023-01-19T23:27:29.672Z,10.65
2023-01-19T23:30:01.119Z,11.48
2023-01-19T23:32:32.536Z,12.25
2023-01-19T23:35:04.142Z,13.43
2023-01-19T23:37:35.549Z,14.30
2023-01-19T23:40:07.422Z,15.02
2023-01-19T23:42:38.907Z,16.08
2023-01-19T23:45:10.936Z,15.60
2023-01-19T23:47:42.525Z,18.77
2023-01-19T23:50:13.958Z,19.00
2023-01-19T23:52:45.595Z,20.88
2023-01-19T23:55:17.095Z,21.27
2023-01-19T23:57:48.517Z,21.80
